Aviation Digital Data Service (ADDS)

Output produced by METARs form (1507 UTC 21 December 2014)
found at http://www.aviationweather.gov/adds/metars/
 
KESN 211450Z 00000KT 7SM OVC075 02/M01 A3040